Time;durP1;ratioP1;P1;durP2;ratioP2;P2;SDS_P1;SDS_P2;PMS_P1;PMS_P2;Temp;Humidity;BMP_temperature;BMP_pressure;BME280_temperature;BME280_humidity;BME280_pressure;Samples;Min_cycle;Max_cycle;Signal;HPM_P1;HPM_P2
2024/04/08 00:00:09;;;;;;;3.38;1.58;;;17.10;99.90;;;;;;2093140;28;20036;-69
2024/04/08 00:01:10;;;;;;;2.90;1.63;;;17.10;99.90;;;;;;2094709;28;20043;-69
2024/04/08 00:02:11;;;;;;;3.40;1.40;;;17.10;99.90;;;;;;2093195;28;20523;-69
2024/04/08 00:03:11;;;;;;;1.73;1.20;;;17.10;99.90;;;;;;2094309;28;20513;-68
2024/04/08 00:04:12;;;;;;;4.15;1.70;;;17.10;99.90;;;;;;2094366;28;20033;-68
2024/04/08 00:05:13;;;;;;;3.50;1.48;;;17.10;99.90;;;;;;2094319;28;20100;-69
2024/04/08 00:06:13;;;;;;;4.05;1.40;;;17.10;99.90;;;;;;2085047;28;20087;-66
2024/04/08 00:07:14;;;;;;;3.85;1.48;;;17.10;99.90;;;;;;2083598;28;20116;-69
2024/04/08 00:08:14;;;;;;;2.95;1.50;;;17.10;99.90;;;;;;2094412;28;20028;-67
2024/04/08 00:09:15;;;;;;;2.83;1.38;;;17.10;99.90;;;;;;2094373;28;20073;-68
2024/04/08 00:10:21;;;;;;;2.60;1.33;;;17.00;99.90;;;;;;2092756;28;20031;-70
2024/04/08 00:11:25;;;;;;;2.75;1.58;;;17.00;99.90;;;;;;2089560;28;20905;-67
2024/04/08 00:12:28;;;;;;;7.25;1.30;;;17.10;99.90;;;;;;2092128;28;20116;-70
2024/04/08 00:13:29;;;;;;;5.40;1.77;;;17.00;99.90;;;;;;2093034;28;20032;-68
2024/04/08 00:14:30;;;;;;;1.85;1.42;;;17.00;99.90;;;;;;2092501;28;20029;-70
2024/04/08 00:15:30;;;;;;;4.20;1.88;;;17.00;99.90;;;;;;2085339;28;20032;-69
2024/04/08 00:16:31;;;;;;;3.25;1.63;;;17.10;99.90;;;;;;2078487;28;20114;-69
2024/04/08 00:17:32;;;;;;;4.72;1.70;;;17.10;99.90;;;;;;2084654;28;20029;-69
2024/04/08 00:18:32;;;;;;;5.35;1.40;;;17.00;99.90;;;;;;2093393;28;20044;-69
2024/04/08 00:19:33;;;;;;;3.90;1.13;;;17.00;99.90;;;;;;2095353;28;20032;-69
2024/04/08 00:20:34;;;;;;;3.83;1.50;;;17.00;99.90;;;;;;2094209;28;20033;-69
2024/04/08 00:21:34;;;;;;;2.42;1.27;;;17.00;99.90;;;;;;2093116;28;20062;-69
2024/04/08 00:24:16;;;;;;;3.92;1.67;;;17.10;99.90;;;;;;2257057;25;20419;-68
2024/04/08 00:25:17;;;;;;;2.42;1.48;;;17.00;99.90;;;;;;2248974;26;20003;-68
2024/04/08 00:26:18;;;;;;;2.85;1.35;;;17.00;99.90;;;;;;2253313;26;20009;-70
2024/04/08 00:27:21;;;;;;;4.43;1.20;;;17.00;99.90;;;;;;2253909;26;20005;-69
2024/04/08 00:28:22;;;;;;;5.78;1.67;;;17.00;99.90;;;;;;2251806;26;20081;-68
2024/04/08 00:29:23;;;;;;;3.53;1.52;;;17.00;99.90;;;;;;2251952;26;20403;-69
2024/04/08 00:30:26;;;;;;;2.50;1.55;;;17.00;99.90;;;;;;2251887;26;20014;-68
2024/04/08 00:31:29;;;;;;;3.05;1.30;;;17.00;99.90;;;;;;2252533;26;20127;-69
2024/04/08 00:32:30;;;;;;;3.53;1.60;;;17.00;99.90;;;;;;2252709;26;20014;-68
2024/04/08 00:33:31;;;;;;;3.40;1.73;;;16.90;99.90;;;;;;2253299;26;20436;-69
2024/04/08 00:34:32;;;;;;;2.25;1.63;;;17.00;99.90;;;;;;2256623;26;20237;-68
2024/04/08 00:35:32;;;;;;;2.63;1.33;;;17.00;99.90;;;;;;2252901;26;20064;-69
2024/04/08 00:36:33;;;;;;;5.63;1.42;;;16.90;99.90;;;;;;2253155;26;19999;-71
2024/04/08 00:37:34;;;;;;;4.63;1.80;;;17.00;99.90;;;;;;2254108;26;19995;-68
2024/04/08 00:38:37;;;;;;;5.35;1.58;;;17.00;99.90;;;;;;2255377;26;20000;-69
2024/04/08 00:39:38;;;;;;;3.33;1.60;;;17.00;99.90;;;;;;2249172;26;19999;-68
2024/04/08 00:40:38;;;;;;;4.10;1.55;;;17.00;99.90;;;;;;2251919;26;20003;-68
2024/04/08 00:41:39;;;;;;;2.15;1.20;;;16.90;99.90;;;;;;2250328;26;20010;-68
2024/04/08 00:42:39;;;;;;;3.35;1.73;;;16.90;99.90;;;;;;2256574;26;20013;-69
2024/04/08 00:43:40;;;;;;;2.45;1.40;;;16.90;99.90;;;;;;2253590;26;20011;-68
2024/04/08 00:44:41;;;;;;;2.72;1.50;;;16.90;99.90;;;;;;2254209;26;20281;-68
2024/04/08 00:45:44;;;;;;;2.42;1.60;;;16.90;99.90;;;;;;2251489;26;19999;-68
2024/04/08 00:46:46;;;;;;;3.25;1.58;;;16.90;99.90;;;;;;2251454;26;20071;-68
2024/04/08 00:47:47;;;;;;;5.03;1.83;;;16.90;99.90;;;;;;2251841;26;20000;-68
2024/04/08 00:48:48;;;;;;;3.92;1.90;;;16.90;99.90;;;;;;2253781;26;20021;-68
2024/04/08 00:49:48;;;;;;;3.55;1.70;;;16.90;99.90;;;;;;2250626;26;19999;-69
2024/04/08 00:50:50;;;;;;;5.43;1.95;;;16.90;99.90;;;;;;2250573;26;20010;-69
2024/04/08 00:51:51;;;;;;;2.92;1.67;;;16.90;99.90;;;;;;2252511;26;20924;-68
2024/04/08 00:52:54;;;;;;;6.03;1.98;;;16.80;99.90;;;;;;2253695;26;20343;-69
2024/04/08 00:53:55;;;;;;;5.70;1.70;;;16.90;99.90;;;;;;2253403;26;19999;-68
2024/04/08 00:54:55;;;;;;;2.90;1.40;;;16.80;99.90;;;;;;2253341;26;20066;-68
2024/04/08 00:55:56;;;;;;;5.90;2.35;;;16.80;99.90;;;;;;2254202;26;20587;-68
2024/04/08 00:57:02;;;;;;;2.78;1.58;;;16.80;99.90;;;;;;2253048;26;20013;-68
2024/04/08 00:58:04;;;;;;;4.78;2.40;;;16.80;99.90;;;;;;2250361;26;20010;-68
2024/04/08 00:59:06;;;;;;;1.63;1.33;;;16.80;99.90;;;;;;2252837;26;20014;-68
2024/04/08 01:00:08;;;;;;;4.22;1.63;;;16.90;99.90;;;;;;2251757;26;20003;-68
2024/04/08 01:01:10;;;;;;;2.63;1.20;;;16.80;99.90;;;;;;2254899;26;20008;-68
2024/04/08 01:02:11;;;;;;;4.25;1.63;;;16.80;99.90;;;;;;2258307;26;20408;-68
2024/04/08 01:03:13;;;;;;;2.83;1.70;;;16.80;99.90;;;;;;2255836;26;20003;-68
2024/04/08 01:04:14;;;;;;;3.25;1.50;;;16.80;99.90;;;;;;2252595;26;20000;-68
2024/04/08 01:05:15;;;;;;;4.55;1.80;;;16.80;99.90;;;;;;2252231;26;20013;-68
2024/04/08 01:06:15;;;;;;;4.65;1.85;;;16.80;99.90;;;;;;2253476;26;20430;-69
2024/04/08 01:07:16;;;;;;;5.50;1.92;;;16.80;99.90;;;;;;2249956;26;20007;-69
2024/04/08 01:08:16;;;;;;;3.17;1.60;;;16.80;99.90;;;;;;2248543;26;20020;-69
2024/04/08 01:09:17;;;;;;;4.35;1.52;;;16.80;99.90;;;;;;2252373;26;20396;-68
2024/04/08 01:10:17;;;;;;;3.10;1.65;;;16.80;99.90;;;;;;2251945;26;20003;-68
2024/04/08 01:11:18;;;;;;;5.45;1.75;;;16.70;99.90;;;;;;2256421;26;20003;-69
2024/04/08 01:12:19;;;;;;;4.32;1.80;;;16.80;99.90;;;;;;2248653;26;20011;-69
2024/04/08 01:13:19;;;;;;;3.25;1.90;;;16.70;99.90;;;;;;2250432;26;20072;-69
2024/04/08 01:14:20;;;;;;;5.88;2.00;;;16.80;99.90;;;;;;2253928;26;20009;-69
2024/04/08 01:15:21;;;;;;;3.70;1.90;;;16.70;99.90;;;;;;2249976;26;20017;-69
2024/04/08 01:16:21;;;;;;;5.95;2.10;;;16.70;99.90;;;;;;2252318;26;20079;-67
2024/04/08 01:17:22;;;;;;;2.55;1.58;;;16.80;99.90;;;;;;2249918;26;20014;-68
2024/04/08 01:18:22;;;;;;;2.72;1.48;;;16.70;99.90;;;;;;2250905;26;20018;-68
2024/04/08 01:19:23;;;;;;;4.20;1.70;;;16.70;99.90;;;;;;2253020;26;20025;-68
2024/04/08 01:20:24;;;;;;;5.93;1.95;;;16.70;99.90;;;;;;2252211;26;20399;-69
2024/04/08 01:21:24;;;;;;;2.88;1.55;;;16.70;99.90;;;;;;2251806;26;19998;-68
2024/04/08 01:22:30;;;;;;;6.25;2.00;;;16.70;99.90;;;;;;2255356;26;20060;-68
2024/04/08 01:23:37;;;;;;;3.85;1.70;;;16.70;99.90;;;;;;2255593;26;20088;-68
2024/04/08 01:24:37;;;;;;;4.03;1.52;;;16.70;99.90;;;;;;2258742;26;20013;-68
2024/04/08 01:25:38;;;;;;;7.15;1.65;;;16.70;99.90;;;;;;2271094;26;20489;-69
2024/04/08 01:26:38;;;;;;;5.30;1.98;;;16.70;99.90;;;;;;2277181;25;20091;-68
2024/04/08 01:27:39;;;;;;;5.20;2.17;;;16.70;99.90;;;;;;2252082;26;19995;-69
2024/04/08 01:28:40;;;;;;;4.28;2.03;;;16.70;99.90;;;;;;2251171;26;19995;-68
2024/04/08 01:29:40;;;;;;;4.97;2.20;;;16.70;99.90;;;;;;2252725;26;19999;-68
2024/04/08 01:30:42;;;;;;;5.55;1.92;;;16.70;99.90;;;;;;2250442;26;20003;-67
2024/04/08 01:31:43;;;;;;;6.18;1.73;;;16.70;99.90;;;;;;2246809;26;20435;-67
2024/04/08 01:32:43;;;;;;;3.72;2.03;;;16.70;99.90;;;;;;2249547;26;20396;-69
2024/04/08 01:33:44;;;;;;;3.45;1.67;;;16.70;99.90;;;;;;2251327;26;20733;-67
2024/04/08 01:34:44;;;;;;;3.63;1.77;;;16.60;99.90;;;;;;2251208;26;20005;-68
2024/04/08 01:35:45;;;;;;;4.18;1.65;;;16.60;99.90;;;;;;2249167;26;20009;-67
2024/04/08 01:36:45;;;;;;;2.75;1.73;;;16.70;99.90;;;;;;2249708;26;19991;-68
2024/04/08 01:37:46;;;;;;;4.75;1.83;;;16.60;99.90;;;;;;2243557;26;20085;-68
2024/04/08 01:38:47;;;;;;;3.40;1.77;;;16.60;99.90;;;;;;2246448;26;20395;-68
2024/04/08 01:39:47;;;;;;;5.75;1.73;;;16.60;99.90;;;;;;2243471;26;20064;-68
2024/04/08 01:40:48;;;;;;;4.28;2.17;;;16.60;99.90;;;;;;2243746;26;20007;-69
2024/04/08 01:41:48;;;;;;;4.25;1.90;;;16.60;99.90;;;;;;2245017;26;20003;-68
2024/04/08 01:42:49;;;;;;;5.57;2.30;;;16.60;99.90;;;;;;2249622;26;20013;-69
2024/04/08 01:43:49;;;;;;;3.53;1.70;;;16.60;99.90;;;;;;2244736;26;20010;-68
2024/04/08 01:44:50;;;;;;;3.60;2.00;;;16.60;99.90;;;;;;2241953;26;20011;-68
2024/04/08 01:45:54;;;;;;;2.60;1.75;;;16.60;99.90;;;;;;2246118;26;20474;-68
2024/04/08 01:46:55;;;;;;;5.15;1.90;;;16.60;99.90;;;;;;2247157;26;20450;-68
2024/04/08 01:47:55;;;;;;;3.50;1.77;;;16.60;99.90;;;;;;2245417;26;20351;-69
2024/04/08 01:48:56;;;;;;;3.17;1.98;;;16.60;99.90;;;;;;2243628;26;20014;-68
2024/04/08 01:49:57;;;;;;;4.07;2.00;;;16.60;99.90;;;;;;2245439;26;20007;-69
2024/04/08 01:50:57;;;;;;;3.38;2.10;;;16.60;99.90;;;;;;2244290;26;19995;-68
2024/04/08 01:51:58;;;;;;;4.78;2.00;;;16.60;99.90;;;;;;2244721;26;20002;-68
2024/04/08 01:52:58;;;;;;;4.07;1.95;;;16.60;99.90;;;;;;2246949;26;19995;-69
2024/04/08 01:53:59;;;;;;;3.38;1.80;;;16.60;99.90;;;;;;2244063;26;20355;-68
2024/04/08 01:54:59;;;;;;;4.60;1.90;;;16.60;99.90;;;;;;2244576;26;20003;-68
2024/04/08 01:56:00;;;;;;;2.45;1.58;;;16.60;99.90;;;;;;2245025;26;20467;-68
2024/04/08 01:57:00;;;;;;;2.75;1.40;;;16.60;99.90;;;;;;2246792;26;20002;-68
2024/04/08 01:58:01;;;;;;;4.55;1.92;;;16.60;99.90;;;;;;2246259;26;20046;-68
2024/04/08 01:59:01;;;;;;;3.42;1.58;;;16.60;99.90;;;;;;2247129;26;20340;-68
2024/04/08 02:00:02;;;;;;;3.28;1.35;;;16.60;99.90;;;;;;2243799;26;20076;-68
2024/04/08 02:01:03;;;;;;;2.08;1.60;;;16.60;99.90;;;;;;2243198;26;19995;-68
2024/04/08 02:02:03;;;;;;;2.05;1.63;;;16.60;99.90;;;;;;2243925;26;19995;-67
2024/04/08 02:03:04;;;;;;;3.50;2.03;;;16.60;99.90;;;;;;2244985;26;20001;-67
2024/04/08 02:04:04;;;;;;;3.90;1.85;;;16.60;99.90;;;;;;2242087;26;20426;-68
2024/04/08 02:05:05;;;;;;;4.20;2.13;;;16.60;99.90;;;;;;2243758;26;19999;-68
2024/04/08 02:06:06;;;;;;;6.95;3.22;;;16.50;99.90;;;;;;2245029;26;19999;-68
2024/04/08 02:07:06;;;;;;;6.97;2.60;;;16.60;99.90;;;;;;2246372;26;20009;-68
2024/04/08 02:08:07;;;;;;;4.40;2.10;;;16.60;99.90;;;;;;2245250;26;20019;-68
2024/04/08 02:09:08;;;;;;;4.03;1.77;;;16.50;99.90;;;;;;2244810;26;20448;-68
2024/04/08 02:10:08;;;;;;;3.40;2.03;;;16.50;99.90;;;;;;2244781;26;19995;-68
2024/04/08 02:11:09;;;;;;;3.70;1.95;;;16.50;99.90;;;;;;2247790;26;20367;-68
2024/04/08 02:12:10;;;;;;;3.65;2.08;;;16.50;99.90;;;;;;2244516;26;19999;-68
2024/04/08 02:13:10;;;;;;;5.35;2.00;;;16.50;99.90;;;;;;2244882;26;20141;-68
2024/04/08 02:14:11;;;;;;;2.92;1.60;;;16.50;99.90;;;;;;2242592;26;20010;-68
2024/04/08 02:15:11;;;;;;;4.93;1.95;;;16.50;99.90;;;;;;2244241;26;20427;-68
2024/04/08 02:16:13;;;;;;;3.92;1.77;;;16.50;99.90;;;;;;2239979;26;20463;-69
2024/04/08 02:17:14;;;;;;;2.60;1.77;;;16.50;99.90;;;;;;2274614;26;21149;-68
2024/04/08 02:18:14;;;;;;;3.95;2.20;;;16.40;99.90;;;;;;2272225;26;20010;-68
2024/04/08 02:19:15;;;;;;;3.65;2.22;;;16.40;99.90;;;;;;2245620;26;20000;-68
2024/04/08 02:20:15;;;;;;;4.07;1.83;;;16.40;99.90;;;;;;2246795;26;20030;-68
2024/04/08 02:21:16;;;;;;;3.22;1.70;;;16.40;99.90;;;;;;2242150;26;20478;-68
2024/04/08 02:22:16;;;;;;;2.50;1.80;;;16.40;99.90;;;;;;2244928;26;20691;-68
2024/04/08 02:23:17;;;;;;;4.05;2.05;;;16.40;99.90;;;;;;2244511;26;19996;-69
2024/04/08 02:24:17;;;;;;;7.70;2.15;;;16.30;99.90;;;;;;2245033;26;20491;-69
2024/04/08 02:25:18;;;;;;;2.38;1.80;;;16.30;99.90;;;;;;2244668;26;20022;-68
2024/04/08 02:26:18;;;;;;;5.65;2.75;;;16.30;99.90;;;;;;2241832;26;20002;-68
2024/04/08 02:27:19;;;;;;;4.95;1.73;;;16.30;99.90;;;;;;2242253;26;20011;-68
2024/04/08 02:28:29;;;;;;;3.13;1.73;;;16.30;99.90;;;;;;2244076;26;19999;-68
2024/04/08 02:29:32;;;;;;;3.08;1.88;;;16.30;99.90;;;;;;2247026;26;20010;-67
2024/04/08 02:30:36;;;;;;;3.80;1.83;;;16.20;99.90;;;;;;2244231;26;20385;-68
2024/04/08 02:31:37;;;;;;;4.60;2.17;;;16.20;99.90;;;;;;2246230;26;19999;-68
2024/04/08 02:32:38;;;;;;;2.63;1.67;;;16.20;99.90;;;;;;2243311;26;20004;-68
2024/04/08 02:33:38;;;;;;;3.17;1.55;;;16.20;99.90;;;;;;2247241;26;19999;-69
2024/04/08 02:34:40;;;;;;;2.85;1.85;;;16.20;99.90;;;;;;2246642;26;20387;-68
2024/04/08 02:35:40;;;;;;;2.47;1.67;;;16.20;99.90;;;;;;2249887;26;20014;-68
2024/04/08 02:36:41;;;;;;;3.05;1.60;;;16.20;99.90;;;;;;2237055;26;19995;-68
2024/04/08 02:37:43;;;;;;;3.63;1.75;;;16.10;99.90;;;;;;2248782;26;19996;-68
2024/04/08 02:38:43;;;;;;;4.03;1.98;;;16.10;99.90;;;;;;2244243;26;20068;-68
2024/04/08 02:39:44;;;;;;;3.33;1.88;;;16.10;99.90;;;;;;2243506;26;20076;-69
2024/04/08 02:40:44;;;;;;;4.43;2.03;;;16.10;99.90;;;;;;2242378;26;20003;-68
2024/04/08 02:41:45;;;;;;;4.30;2.05;;;16.10;99.90;;;;;;2244058;26;20488;-68
2024/04/08 02:42:45;;;;;;;2.45;1.83;;;16.10;99.90;;;;;;2244464;26;20332;-68
2024/04/08 02:43:46;;;;;;;3.13;2.00;;;16.10;99.90;;;;;;2232446;26;20000;-68
2024/04/08 02:44:46;;;;;;;4.30;2.20;;;16.10;99.90;;;;;;2246698;26;20332;-68
2024/04/08 02:45:47;;;;;;;6.78;2.17;;;16.10;99.90;;;;;;2246717;26;20011;-68
2024/04/08 02:46:48;;;;;;;3.88;2.05;;;16.10;99.90;;;;;;2248000;26;20029;-68
2024/04/08 02:47:48;;;;;;;4.53;2.50;;;16.10;99.90;;;;;;2243410;26;20010;-68
2024/04/08 02:48:50;;;;;;;3.63;2.00;;;16.10;99.90;;;;;;2245422;26;20018;-67
2024/04/08 02:49:50;;;;;;;3.47;2.08;;;16.10;99.90;;;;;;2243001;26;19999;-69
2024/04/08 02:50:51;;;;;;;4.35;2.00;;;16.10;99.90;;;;;;2245088;26;20031;-68
2024/04/08 02:51:52;;;;;;;2.70;1.95;;;16.00;99.90;;;;;;2245005;26;19994;-68
2024/04/08 02:52:53;;;;;;;4.85;2.20;;;16.10;99.90;;;;;;2246447;26;20003;-68
2024/04/08 02:53:53;;;;;;;5.40;2.05;;;16.00;99.90;;;;;;2246495;26;20413;-68
2024/04/08 02:54:54;;;;;;;4.68;2.45;;;16.10;99.90;;;;;;2242487;26;19999;-68
2024/04/08 02:56:01;;;;;;;4.75;2.28;;;16.10;99.90;;;;;;2244924;26;20010;-68
2024/04/08 02:57:02;;;;;;;5.80;2.20;;;16.10;99.90;;;;;;2244538;26;20355;-69
2024/04/08 02:58:03;;;;;;;5.85;2.75;;;16.00;99.90;;;;;;2247219;26;20085;-69
2024/04/08 02:59:04;;;;;;;4.75;2.17;;;16.00;99.90;;;;;;2243881;26;20520;-68
2024/04/08 03:00:05;;;;;;;5.30;3.08;;;16.00;99.90;;;;;;2243046;26;20523;-68
2024/04/08 03:01:09;;;;;;;5.78;2.90;;;16.00;99.90;;;;;;2244160;26;19999;-68
2024/04/08 03:02:09;;;;;;;5.18;3.22;;;16.00;99.90;;;;;;2242767;26;20418;-68
2024/04/08 03:03:10;;;;;;;5.25;2.88;;;16.00;99.90;;;;;;2245236;26;20352;-68
2024/04/08 03:04:10;;;;;;;4.60;2.90;;;16.00;99.90;;;;;;2245192;26;20018;-68
2024/04/08 03:05:11;;;;;;;3.78;2.70;;;16.00;99.90;;;;;;2242852;26;20000;-68
2024/04/08 03:06:15;;;;;;;5.68;3.65;;;16.00;99.90;;;;;;2241703;26;20018;-68
2024/04/08 03:07:16;;;;;;;4.57;2.97;;;16.00;99.90;;;;;;2244461;26;20451;-70
2024/04/08 03:08:16;;;;;;;6.80;3.40;;;16.00;99.90;;;;;;2244742;26;20007;-69
2024/04/08 03:09:17;;;;;;;6.70;3.50;;;15.90;99.90;;;;;;2246869;26;20383;-68
2024/04/08 03:10:18;;;;;;;5.35;3.85;;;15.90;99.90;;;;;;2246857;26;20006;-69
2024/04/08 03:11:18;;;;;;;5.90;3.47;;;15.90;99.90;;;;;;2243289;26;20010;-69
2024/04/08 03:12:19;;;;;;;5.50;4.07;;;15.90;99.90;;;;;;2244322;26;20002;-68
2024/04/08 03:13:19;;;;;;;7.70;4.00;;;15.90;99.90;;;;;;2247567;26;20003;-69
2024/04/08 03:14:20;;;;;;;5.18;3.28;;;15.90;99.90;;;;;;2241953;26;20014;-68
2024/04/08 03:15:20;;;;;;;6.68;3.20;;;15.90;99.90;;;;;;2245327;26;20467;-69
2024/04/08 03:16:21;;;;;;;7.75;3.60;;;15.90;99.90;;;;;;2243268;26;20459;-69
2024/04/08 03:17:21;;;;;;;3.97;3.35;;;15.90;99.90;;;;;;2240761;26;20510;-69
2024/04/08 03:18:23;;;;;;;5.07;3.65;;;15.90;99.90;;;;;;2243705;26;20397;-69
2024/04/08 03:19:23;;;;;;;4.80;3.65;;;15.80;99.90;;;;;;2245817;26;20131;-68
2024/04/08 03:20:24;;;;;;;6.60;2.80;;;15.80;99.90;;;;;;2242394;26;20102;-67
2024/04/08 03:21:24;;;;;;;5.72;3.25;;;15.80;99.90;;;;;;2242233;26;20007;-68
2024/04/08 03:22:25;;;;;;;5.30;3.05;;;15.80;99.90;;;;;;2245285;26;20018;-68
2024/04/08 03:23:26;;;;;;;5.85;3.15;;;15.80;99.90;;;;;;2243617;26;20347;-68
2024/04/08 03:24:27;;;;;;;7.85;3.33;;;15.80;99.90;;;;;;2245369;26;20019;-68
2024/04/08 03:25:27;;;;;;;5.25;3.53;;;15.80;99.90;;;;;;2244646;26;20016;-69
2024/04/08 03:26:28;;;;;;;5.88;3.60;;;15.80;99.90;;;;;;2249071;26;20019;-70
2024/04/08 03:27:28;;;;;;;5.32;3.40;;;15.80;99.90;;;;;;2245899;26;20003;-68
2024/04/08 03:28:30;;;;;;;4.45;3.58;;;15.80;99.90;;;;;;2243632;26;19998;-68
2024/04/08 03:29:30;;;;;;;6.40;4.18;;;15.80;99.90;;;;;;2243805;26;19999;-68
2024/04/08 03:30:31;;;;;;;4.85;3.90;;;15.80;99.90;;;;;;2244019;26;20527;-68
2024/04/08 03:31:31;;;;;;;5.93;3.60;;;15.80;99.90;;;;;;2244781;26;20508;-68
2024/04/08 03:32:32;;;;;;;5.72;4.25;;;15.80;99.90;;;;;;2245178;26;20003;-68
2024/04/08 03:33:33;;;;;;;6.00;3.50;;;15.80;99.90;;;;;;2243416;26;20000;-68
2024/04/08 03:34:35;;;;;;;6.28;4.15;;;15.80;99.90;;;;;;2235632;26;20408;-68
2024/04/08 03:35:36;;;;;;;6.38;3.97;;;15.80;99.90;;;;;;2251255;26;20485;-68
2024/04/08 03:36:36;;;;;;;7.65;3.80;;;15.70;99.90;;;;;;2272984;26;20020;-68
2024/04/08 03:37:37;;;;;;;5.55;4.40;;;15.70;99.90;;;;;;2272154;26;20002;-69
2024/04/08 03:38:37;;;;;;;4.20;3.42;;;15.70;99.90;;;;;;2246225;26;20508;-68
2024/04/08 03:39:38;;;;;;;8.25;4.70;;;15.70;99.90;;;;;;2243735;26;20011;-68
2024/04/08 03:40:39;;;;;;;8.43;3.72;;;15.70;99.90;;;;;;2249214;26;19999;-67
2024/04/08 03:41:39;;;;;;;9.02;4.60;;;15.70;99.90;;;;;;2244064;26;20091;-68
2024/04/08 03:42:40;;;;;;;6.22;4.20;;;15.70;99.90;;;;;;2244883;26;20018;-67
2024/04/08 03:43:41;;;;;;;6.43;4.13;;;15.70;99.90;;;;;;2245768;26;20012;-69
2024/04/08 03:44:41;;;;;;;5.72;4.18;;;15.70;99.90;;;;;;2244251;26;20014;-68
2024/04/08 03:45:49;;;;;;;4.82;4.07;;;15.70;99.90;;;;;;2245880;26;20013;-68
2024/04/08 03:46:50;;;;;;;8.82;4.85;;;15.70;99.90;;;;;;2244645;26;19995;-68
2024/04/08 03:47:50;;;;;;;6.93;4.30;;;15.60;99.90;;;;;;2245912;26;20038;-68
2024/04/08 03:48:51;;;;;;;4.40;3.90;;;15.60;99.90;;;;;;2244061;26;19996;-69
2024/04/08 03:49:53;;;;;;;9.95;4.88;;;15.70;99.90;;;;;;2244771;26;20138;-68
2024/04/08 03:50:54;;;;;;;8.95;4.80;;;15.60;99.90;;;;;;2243923;26;20586;-68
2024/04/08 03:51:54;;;;;;;6.25;4.35;;;15.60;99.90;;;;;;2245417;26;20355;-67
2024/04/08 03:52:55;;;;;;;8.10;4.45;;;15.60;99.90;;;;;;2243437;26;20346;-69
2024/04/08 03:53:55;;;;;;;7.72;4.72;;;15.60;99.90;;;;;;2244342;26;19999;-68
2024/04/08 03:54:57;;;;;;;6.57;4.60;;;15.60;99.90;;;;;;2246136;26;20297;-68
2024/04/08 03:56:04;;;;;;;7.80;4.72;;;15.60;99.90;;;;;;2241591;26;20462;-68
2024/04/08 03:57:04;;;;;;;6.05;4.70;;;15.60;99.90;;;;;;2247137;26;20006;-68
2024/04/08 03:58:05;;;;;;;8.88;4.72;;;15.60;99.90;;;;;;2242785;26;20070;-67
2024/04/08 03:59:06;;;;;;;9.23;5.18;;;15.60;99.90;;;;;;2246214;26;20000;-68
2024/04/08 04:00:07;;;;;;;7.75;4.63;;;15.60;99.90;;;;;;2246734;26;20006;-68
2024/04/08 04:01:09;;;;;;;5.05;4.55;;;15.60;99.90;;;;;;2240682;26;20005;-68
2024/04/08 04:02:10;;;;;;;6.07;4.07;;;15.70;99.90;;;;;;2244304;26;20056;-68
2024/04/08 04:03:10;;;;;;;4.93;3.50;;;15.70;99.90;;;;;;2245678;26;20524;-68
2024/04/08 04:04:11;;;;;;;5.53;3.75;;;15.60;99.90;;;;;;2245141;26;19999;-68
2024/04/08 04:05:12;;;;;;;4.07;3.63;;;15.70;99.90;;;;;;2243859;26;20014;-68
2024/04/08 04:06:12;;;;;;;6.90;4.75;;;15.70;99.90;;;;;;2243164;26;20439;-68
2024/04/08 04:07:13;;;;;;;4.53;3.42;;;15.70;99.90;;;;;;2243416;26;20059;-68
2024/04/08 04:08:13;;;;;;;4.80;3.38;;;15.70;99.90;;;;;;2246798;26;20038;-68
2024/04/08 04:09:14;;;;;;;4.82;3.53;;;15.60;99.90;;;;;;2243881;26;20014;-68
2024/04/08 04:10:17;;;;;;;6.47;4.40;;;15.70;99.90;;;;;;2246496;26;20616;-69
2024/04/08 04:11:18;;;;;;;5.25;4.32;;;15.70;99.90;;;;;;2244439;26;20444;-68
2024/04/08 04:12:18;;;;;;;6.22;3.78;;;15.70;99.90;;;;;;2242344;26;20348;-68
2024/04/08 04:13:19;;;;;;;3.60;3.22;;;15.60;99.90;;;;;;2243925;26;20013;-68
2024/04/08 04:14:19;;;;;;;4.68;3.60;;;15.70;99.90;;;;;;2246152;26;19998;-67
2024/04/08 04:15:20;;;;;;;5.05;3.80;;;15.70;99.90;;;;;;2243670;26;20000;-68
2024/04/08 04:16:23;;;;;;;6.65;4.00;;;15.70;99.90;;;;;;2242718;26;20006;-67
2024/04/08 04:17:23;;;;;;;7.28;4.93;;;15.70;99.90;;;;;;2244293;26;20039;-68
2024/04/08 04:18:24;;;;;;;4.88;4.10;;;15.60;99.90;;;;;;2243692;26;19995;-68
2024/04/08 04:19:24;;;;;;;5.10;4.55;;;15.60;99.90;;;;;;2244171;26;20018;-68
2024/04/08 04:20:26;;;;;;;7.15;5.15;;;15.60;99.90;;;;;;2242319;26;20047;-68
2024/04/08 04:21:27;;;;;;;6.68;5.32;;;15.60;99.90;;;;;;2246184;26;19995;-69
2024/04/08 04:22:28;;;;;;;7.18;4.93;;;15.60;99.90;;;;;;2245522;26;20076;-68
2024/04/08 04:23:28;;;;;;;6.63;4.80;;;15.60;99.90;;;;;;2244354;26;20028;-69
2024/04/08 04:24:29;;;;;;;6.82;4.88;;;15.60;99.90;;;;;;2240843;26;19995;-68
2024/04/08 04:25:29;;;;;;;6.75;4.78;;;15.60;99.90;;;;;;2242717;26;20019;-68
2024/04/08 04:26:30;;;;;;;5.97;4.38;;;15.60;99.90;;;;;;2244300;26;19998;-68
2024/04/08 04:27:30;;;;;;;8.07;5.20;;;15.60;99.90;;;;;;2241509;26;20328;-68
2024/04/08 04:28:31;;;;;;;7.03;5.57;;;15.50;99.90;;;;;;2241982;26;20496;-69
2024/04/08 04:29:31;;;;;;;6.63;5.03;;;15.50;99.90;;;;;;2244787;26;20003;-68
2024/04/08 04:30:32;;;;;;;8.27;5.75;;;15.50;99.90;;;;;;2243521;26;20051;-68
2024/04/08 04:31:44;;;;;;;9.43;5.75;;;15.50;99.90;;;;;;2245218;26;20697;-68
2024/04/08 04:32:45;;;;;;;7.50;3.72;;;15.50;99.90;;;;;;2244834;26;20031;-68
2024/04/08 04:33:46;;;;;;;5.53;4.05;;;15.40;99.90;;;;;;2242273;26;20026;-68
2024/04/08 04:34:49;;;;;;;6.20;4.50;;;15.40;99.90;;;;;;2246109;26;20457;-68
2024/04/08 04:36:08;;;;;;;8.30;5.10;;;15.40;99.90;;;;;;2241870;26;20003;-68
2024/04/08 04:37:09;;;;;;;4.72;3.97;;;15.40;99.90;;;;;;2243627;26;20071;-68
2024/04/08 04:38:09;;;;;;;4.72;4.03;;;15.40;99.90;;;;;;2246528;26;20017;-69
2024/04/08 04:39:10;;;;;;;5.20;4.47;;;15.40;99.90;;;;;;2243092;26;19999;-67
2024/04/08 04:40:11;;;;;;;6.82;4.90;;;15.30;99.90;;;;;;2243346;26;20018;-68
2024/04/08 04:41:14;;;;;;;5.88;4.80;;;15.30;99.90;;;;;;2240873;26;20003;-70
2024/04/08 04:42:14;;;;;;;4.95;4.32;;;15.30;99.90;;;;;;2244641;26;20533;-70
2024/04/08 04:43:15;;;;;;;4.88;4.22;;;15.30;99.90;;;;;;2244136;26;20417;-70
2024/04/08 04:44:15;;;;;;;5.15;3.92;;;15.30;99.90;;;;;;2244582;26;20014;-70
2024/04/08 04:45:17;;;;;;;6.15;4.72;;;15.20;99.90;;;;;;2247260;26;20010;-70
2024/04/08 04:46:17;;;;;;;5.22;4.63;;;15.20;99.90;;;;;;2242189;26;20059;-70
2024/04/08 04:47:18;;;;;;;4.35;3.95;;;15.20;99.90;;;;;;2241700;26;20076;-70
2024/04/08 04:48:18;;;;;;;5.75;4.20;;;15.20;99.90;;;;;;2244815;26;20008;-70
2024/04/08 04:49:19;;;;;;;7.53;5.03;;;15.20;99.90;;;;;;2245796;26;20025;-70
2024/04/08 04:50:20;;;;;;;9.10;5.47;;;15.20;99.90;;;;;;2243056;26;20411;-70
2024/04/08 04:51:20;;;;;;;9.60;5.30;;;15.20;99.90;;;;;;2249196;26;20014;-70
2024/04/08 04:52:21;;;;;;;6.65;4.90;;;15.20;99.90;;;;;;2248548;26;20403;-69
2024/04/08 04:53:21;;;;;;;5.10;4.60;;;15.20;99.90;;;;;;2243869;26;19995;-70
2024/04/08 04:54:22;;;;;;;6.00;4.70;;;15.20;99.90;;;;;;2245509;26;20007;-70
2024/04/08 04:55:22;;;;;;;7.50;5.40;;;15.20;99.90;;;;;;2248278;26;20467;-70
2024/04/08 04:56:23;;;;;;;4.72;4.00;;;15.20;99.90;;;;;;2241906;26;19999;-70
2024/04/08 04:57:23;;;;;;;4.85;4.45;;;15.10;99.90;;;;;;2245838;26;20047;-70
2024/04/08 04:58:24;;;;;;;5.10;4.57;;;15.10;99.90;;;;;;2243343;26;19999;-70
2024/04/08 04:59:24;;;;;;;4.55;4.00;;;15.10;99.90;;;;;;2245799;26;20010;-70
2024/04/08 05:00:26;;;;;;;4.20;3.58;;;15.10;99.90;;;;;;2243110;26;20046;-70
2024/04/08 05:01:27;;;;;;;4.45;4.03;;;15.10;99.90;;;;;;2243126;26;19996;-70
2024/04/08 05:02:27;;;;;;;4.85;4.35;;;15.10;99.90;;;;;;2244452;26;20005;-69
2024/04/08 05:03:28;;;;;;;4.40;4.00;;;15.00;99.90;;;;;;2245165;26;20019;-70
2024/04/08 05:04:28;;;;;;;4.45;4.07;;;15.00;99.90;;;;;;2243723;26;20380;-69
2024/04/08 05:05:29;;;;;;;4.90;4.00;;;15.00;99.90;;;;;;2245301;26;20083;-69
2024/04/08 05:06:30;;;;;;;5.45;4.40;;;15.00;99.90;;;;;;2244514;26;19991;-69
2024/04/08 05:07:31;;;;;;;4.40;4.00;;;15.00;99.90;;;;;;2246518;26;19991;-70
2024/04/08 05:08:31;;;;;;;6.20;4.28;;;14.90;99.90;;;;;;2246100;26;19991;-70
2024/04/08 05:09:32;;;;;;;3.95;3.65;;;14.90;99.90;;;;;;2246860;26;20009;-70
2024/04/08 05:10:32;;;;;;;5.65;4.55;;;15.00;99.90;;;;;;2240005;26;19995;-70
2024/04/08 05:11:33;;;;;;;3.97;3.63;;;14.90;99.90;;;;;;2245262;26;19996;-70
2024/04/08 05:12:34;;;;;;;5.60;3.88;;;14.90;99.90;;;;;;2244322;26;19995;-70
2024/04/08 05:13:35;;;;;;;4.82;4.18;;;14.90;99.90;;;;;;2246955;26;20000;-70
2024/04/08 05:14:36;;;;;;;3.95;3.65;;;14.90;99.90;;;;;;2246350;26;20003;-70
2024/04/08 05:15:36;;;;;;;5.68;3.65;;;14.90;99.90;;;;;;2247572;26;20451;-69
2024/04/08 05:16:37;;;;;;;3.83;3.53;;;14.90;99.90;;;;;;2247485;26;20352;-70
2024/04/08 05:17:37;;;;;;;4.43;4.07;;;14.80;99.90;;;;;;2246056;26;20011;-70
2024/04/08 05:18:38;;;;;;;6.70;4.15;;;14.80;99.90;;;;;;2244185;26;19995;-70
2024/04/08 05:19:39;;;;;;;4.10;3.70;;;14.80;99.90;;;;;;2243631;26;19992;-70